Time;durP1;ratioP1;P1;durP2;ratioP2;P2;SDS_P1;SDS_P2;PMS_P1;PMS_P2;Temp;Humidity;BMP_temperature;BMP_pressure;BME280_temperature;BME280_humidity;BME280_pressure;Samples;Min_cycle;Max_cycle;Signal;HPM_P1;HPM_P2
2022/09/03 00:01:38;;;;;;;0.20;0.20;;;;;;;19.31;55.65;101094.25;5021984;28;20068;-64
2022/09/03 00:04:11;;;;;;;0.30;0.25;;;;;;;19.37;55.24;101076.28;5024739;28;20033;-64
2022/09/03 00:06:45;;;;;;;0.47;0.22;;;;;;;19.38;55.23;101080.56;5023132;28;20049;-64
2022/09/03 00:09:33;;;;;;;0.60;0.40;;;;;;;19.21;55.84;101086.13;5029582;28;20108;-64
2022/09/03 00:12:14;;;;;;;0.45;0.30;;;;;;;19.26;55.50;101078.28;5028051;28;20044;-64
2022/09/03 00:14:46;;;;;;;0.38;0.38;;;;;;;19.24;55.53;101072.44;5029199;28;20044;-64
2022/09/03 00:17:17;;;;;;;0.40;0.22;;;;;;;19.15;55.52;101082.28;5030183;28;20025;-64
2022/09/03 00:19:52;;;;;;;0.30;0.30;;;;;;;19.13;56.36;101073.72;5029874;28;20045;-64
2022/09/03 00:22:22;;;;;;;0.30;0.30;;;;;;;19.26;55.31;101072.81;5026621;28;20045;-64
2022/09/03 00:24:49;;;;;;;0.47;0.40;;;;;;;19.20;55.55;101079.88;5030116;28;20117;-64
2022/09/03 00:27:24;;;;;;;0.30;0.30;;;;;;;19.30;55.00;101078.28;5028691;28;20026;-64
2022/09/03 00:30:05;;;;;;;0.68;0.30;;;;;;;19.23;55.16;101079.09;5029539;28;20057;-64
2022/09/03 00:32:46;;;;;;;1.85;0.35;;;;;;;19.07;55.87;101078.03;5028138;28;20112;-64
2022/09/03 00:35:53;;;;;;;0.47;0.20;;;;;;;19.02;56.24;101082.00;5011702;28;20501;-64
2022/09/03 00:38:21;;;;;;;1.27;0.17;;;;;;;19.00;56.27;101081.63;5010598;28;20040;-64
2022/09/03 00:41:07;;;;;;;0.57;0.40;;;;;;;19.03;56.62;101078.06;5028248;28;20052;-64
2022/09/03 00:43:42;;;;;;;0.30;0.30;;;;;;;19.13;55.64;101081.91;5029967;28;20030;-64
2022/09/03 00:46:46;;;;;;;0.52;0.40;;;;;;;19.03;55.98;101069.13;5026982;28;20029;-64
2022/09/03 00:49:11;;;;;;;0.65;0.40;;;;;;;18.62;56.57;101077.19;5020311;28;20049;-64
2022/09/03 00:51:58;;;;;;;0.50;0.40;;;;;;;18.77;57.02;101068.53;5024059;28;20517;-64
2022/09/03 00:54:48;;;;;;;0.88;0.55;;;;;;;18.59;57.53;101073.31;5024275;28;20533;-64
2022/09/03 00:57:28;;;;;;;0.40;0.40;;;;;;;18.68;57.59;101064.66;5026776;28;20087;-64
2022/09/03 01:00:06;;;;;;;0.63;0.40;;;;;;;18.86;56.96;101065.34;5033914;28;20037;-64
2022/09/03 01:02:41;;;;;;;0.45;0.40;;;;;;;18.66;57.35;101073.25;5016170;28;20115;-64
2022/09/03 01:05:17;;;;;;;2.65;0.32;;;;;;;18.51;58.19;101062.81;5032983;28;20397;-64
2022/09/03 01:07:47;;;;;;;1.27;0.30;;;;;;;18.59;57.61;101076.03;5014309;28;20033;-64
2022/09/03 01:10:29;;;;;;;0.30;0.30;;;;;;;18.56;57.93;101070.59;5031416;28;20037;-64
2022/09/03 01:13:16;;;;;;;0.57;0.43;;;;;;;18.54;57.84;101081.88;5031673;28;20045;-64
2022/09/03 01:16:00;;;;;;;0.40;0.30;;;;;;;18.58;57.87;101073.72;5032726;28;20128;-64
2022/09/03 01:18:43;;;;;;;1.20;0.40;;;;;;;18.46;58.58;101063.25;5034022;28;20048;-64
2022/09/03 01:21:30;;;;;;;1.30;0.60;;;;;;;18.52;57.98;101067.13;5015657;28;20041;-64
2022/09/03 01:24:17;;;;;;;0.30;0.30;;;;;;;18.54;58.11;101072.94;5014746;28;20124;-64
2022/09/03 01:26:45;;;;;;;0.28;0.25;;;;;;;18.58;57.77;101074.47;5029952;28;20080;-64
2022/09/03 01:29:38;;;;;;;0.43;0.30;;;;;;;18.58;58.13;101074.47;5030255;28;20021;-64
2022/09/03 01:32:23;;;;;;;0.40;0.38;;;;;;;18.68;57.58;101068.19;5031073;28;20037;-64
2022/09/03 01:34:57;;;;;;;0.30;0.30;;;;;;;18.60;57.46;101057.72;5029650;28;20033;-64
2022/09/03 01:37:25;;;;;;;1.00;0.57;;;;;;;18.63;58.06;101062.38;5031043;28;20112;-64
2022/09/03 01:40:20;;;;;;;0.60;0.60;;;;;;;18.67;57.73;101069.38;5012659;28;20510;-64
2022/09/03 01:42:54;;;;;;;0.43;0.30;;;;;;;18.66;58.57;101064.31;5035468;28;20034;-64
2022/09/03 01:45:32;;;;;;;0.95;0.50;;;;;;;18.71;58.33;101069.34;5032234;28;20088;-64
2022/09/03 01:48:10;;;;;;;0.93;0.50;;;;;;;18.80;57.36;101072.38;5032095;28;20036;-64
2022/09/03 01:50:56;;;;;;;0.40;0.35;;;;;;;18.75;57.61;101070.88;5028595;28;20033;-64
2022/09/03 01:53:54;;;;;;;0.60;0.35;;;;;;;18.78;57.45;101067.34;5032074;28;20044;-62
2022/09/03 01:57:02;;;;;;;0.60;0.43;;;;;;;18.84;56.76;101073.94;5032666;28;20041;-64
2022/09/03 01:59:34;;;;;;;0.50;0.30;;;;;;;18.74;57.28;101068.53;5002971;28;20052;-64
2022/09/03 02:02:18;;;;;;;0.93;0.38;;;;;;;18.72;57.21;101058.00;5032129;28;20084;-63
2022/09/03 02:04:58;;;;;;;1.50;0.60;;;;;;;18.69;57.60;101056.09;5028654;28;20110;-64
2022/09/03 02:07:25;;;;;;;2.20;0.57;;;;;;;18.65;57.90;101060.81;5029267;28;20042;-64
2022/09/03 02:09:50;;;;;;;0.60;0.40;;;;;;;18.78;57.16;101069.28;5014642;28;20044;-64
2022/09/03 02:12:18;;;;;;;0.30;0.30;;;;;;;18.84;56.91;101054.81;5015019;28;20032;-64
2022/09/03 02:14:45;;;;;;;5.35;0.40;;;;;;;18.81;56.53;101066.53;5008154;28;20048;-63
2022/09/03 02:17:11;;;;;;;0.77;0.50;;;;;;;18.83;56.34;101066.16;5012639;28;20033;-64
2022/09/03 02:19:38;;;;;;;0.60;0.50;;;;;;;18.73;56.30;101061.53;5031177;28;20041;-64
2022/09/03 02:22:04;;;;;;;0.43;0.30;;;;;;;18.77;56.78;101056.81;5030014;28;20059;-64
2022/09/03 02:24:30;;;;;;;0.32;0.32;;;;;;;18.67;56.40;101063.91;5032431;28;20034;-64
2022/09/03 02:26:55;;;;;;;0.32;0.30;;;;;;;18.58;56.97;101063.56;5031809;28;20037;-64
2022/09/03 02:29:22;;;;;;;0.40;0.40;;;;;;;18.50;57.72;101064.78;5032706;28;20087;-64
2022/09/03 02:31:48;;;;;;;3.45;0.50;;;;;;;18.32;58.30;101055.09;5025904;28;20033;-64
2022/09/03 02:34:13;;;;;;;0.30;0.30;;;;;;;18.34;58.43;101058.22;5030142;28;20430;-64
2022/09/03 02:36:42;;;;;;;0.98;0.80;;;;;;;18.47;58.15;101059.31;5013996;28;20037;-64
2022/09/03 02:39:08;;;;;;;0.50;0.45;;;;;;;18.54;57.24;101054.59;5031689;28;20071;-64
2022/09/03 02:41:33;;;;;;;0.30;0.30;;;;;;;18.44;58.18;101057.41;5032018;28;20472;-64
2022/09/03 02:44:12;;;;;;;4.00;0.40;;;;;;;18.31;59.02;101053.56;5031461;28;20026;-64
2022/09/03 02:46:42;;;;;;;0.50;0.43;;;;;;;18.30;58.99;101058.22;5031915;28;20037;-64
2022/09/03 02:49:08;;;;;;;0.70;0.52;;;;;;;18.20;58.90;101055.53;5029975;28;20119;-64
2022/09/03 02:51:42;;;;;;;0.68;0.60;;;;;;;18.08;59.52;101064.19;5013649;28;20029;-64
2022/09/03 02:54:09;;;;;;;0.60;0.30;;;;;;;18.04;60.09;101064.94;5013924;28;20508;-63
2022/09/03 02:56:36;;;;;;;0.73;0.52;;;;;;;17.89;61.08;101063.44;5031503;28;20490;-64
2022/09/03 02:59:03;;;;;;;0.60;0.30;;;;;;;17.86;60.52;101064.25;5031981;28;20556;-64
2022/09/03 03:01:28;;;;;;;0.50;0.30;;;;;;;18.01;60.28;101071.19;5031851;28;20029;-64
2022/09/03 03:03:54;;;;;;;0.88;0.45;;;;;;;18.03;59.51;101060.69;5030555;28;20041;-63
2022/09/03 03:06:20;;;;;;;0.47;0.35;;;;;;;17.83;60.94;101062.28;5030988;28;20075;-64
2022/09/03 03:08:46;;;;;;;0.57;0.40;;;;;;;17.75;61.32;101068.16;5031714;28;20041;-64
2022/09/03 03:11:14;;;;;;;1.42;0.40;;;;;;;17.62;60.90;101064.28;5013434;28;20051;-64
2022/09/03 03:13:40;;;;;;;0.40;0.40;;;;;;;17.73;61.05;101070.50;5029421;28;20350;-64
2022/09/03 03:16:05;;;;;;;3.22;0.70;;;;;;;17.66;61.64;101063.13;5029719;28;20079;-64
2022/09/03 03:18:32;;;;;;;0.60;0.40;;;;;;;17.63;61.92;101063.91;5030984;28;20037;-64
2022/09/03 03:21:06;;;;;;;0.50;0.50;;;;;;;17.84;61.02;101063.88;5030403;28;20036;-64
2022/09/03 03:23:33;;;;;;;0.95;0.38;;;;;;;17.85;60.37;101062.69;5026031;28;20052;-64
2022/09/03 03:26:04;;;;;;;3.53;0.40;;;;;;;17.58;61.78;101063.50;5031024;28;20036;-64
2022/09/03 03:28:33;;;;;;;0.55;0.43;;;;;;;17.48;63.05;101062.34;5030978;28;20101;-64
2022/09/03 03:31:06;;;;;;;1.05;0.47;;;;;;;17.63;62.23;101061.19;5031392;28;20052;-64
2022/09/03 03:33:32;;;;;;;0.55;0.55;;;;;;;17.62;62.10;101059.63;5007464;28;20033;-64
2022/09/03 03:35:57;;;;;;;0.40;0.40;;;;;;;17.62;61.82;101062.34;5013010;28;20486;-64
2022/09/03 03:38:23;;;;;;;1.27;0.50;;;;;;;17.56;61.96;101054.94;5031226;28;20112;-64
2022/09/03 03:40:48;;;;;;;0.50;0.40;;;;;;;17.55;62.08;101059.63;5029393;28;20045;-64
2022/09/03 03:43:14;;;;;;;0.82;0.52;;;;;;;17.56;61.49;101069.34;5010431;28;20037;-64
2022/09/03 03:45:39;;;;;;;0.60;0.43;;;;;;;17.53;61.47;101063.91;5029765;28;20045;-64
2022/09/03 03:48:04;;;;;;;0.32;0.32;;;;;;;17.23;61.95;101063.53;5029048;28;20441;-64
2022/09/03 03:50:30;;;;;;;1.00;0.50;;;;;;;17.23;62.63;101071.69;5029904;28;20037;-64
2022/09/03 03:52:59;;;;;;;0.73;0.43;;;;;;;17.21;62.79;101069.34;5030706;28;20783;-64
2022/09/03 03:55:25;;;;;;;0.47;0.30;;;;;;;17.26;63.01;101063.53;5030311;28;20057;-64
2022/09/03 03:57:50;;;;;;;3.20;0.40;;;;;;;17.19;63.15;101074.41;5027715;28;20454;-64
2022/09/03 04:00:16;;;;;;;0.60;0.60;;;;;;;17.11;63.38;101070.91;5025545;28;20053;-64
2022/09/03 04:02:42;;;;;;;2.33;0.40;;;;;;;17.08;63.60;101066.25;5028011;28;20465;-63
2022/09/03 04:05:07;;;;;;;0.80;0.60;;;;;;;16.98;64.13;101068.94;5029097;28;20071;-64
2022/09/03 04:07:33;;;;;;;0.40;0.40;;;;;;;17.07;63.63;101066.63;5029262;28;20095;-64
2022/09/03 04:09:58;;;;;;;0.55;0.40;;;;;;;17.24;62.64;101068.59;5011366;28;20037;-65
2022/09/03 04:12:25;;;;;;;0.52;0.47;;;;;;;17.25;62.70;101069.38;5028866;28;20044;-64
2022/09/03 04:14:51;;;;;;;0.60;0.40;;;;;;;17.17;62.26;101070.53;5012389;28;20555;-64
2022/09/03 04:17:16;;;;;;;0.82;0.50;;;;;;;17.23;62.10;101074.44;4989396;28;20038;-65
2022/09/03 04:19:42;;;;;;;0.70;0.45;;;;;;;17.19;61.74;101081.81;5028363;28;20986;-64
2022/09/03 04:22:07;;;;;;;0.82;0.50;;;;;;;17.12;62.75;101086.06;5010229;28;20037;-64
2022/09/03 04:24:34;;;;;;;0.40;0.40;;;;;;;17.23;62.11;101079.88;5029505;28;20072;-64
2022/09/03 04:27:00;;;;;;;0.50;0.35;;;;;;;17.09;62.91;101067.78;5027211;28;20041;-64
2022/09/03 04:29:25;;;;;;;0.45;0.43;;;;;;;17.17;62.96;101076.72;5027198;28;20036;-64
2022/09/03 04:34:34;;;;;;;0.50;0.35;;;;;;;17.19;61.77;101079.09;5025439;28;20037;-64
2022/09/03 04:37:00;;;;;;;0.40;0.40;;;;;;;17.17;62.54;101071.28;5029571;28;20754;-65
2022/09/03 04:39:25;;;;;;;0.50;0.40;;;;;;;17.03;63.35;101077.50;5029970;28;20041;-64
2022/09/03 04:41:51;;;;;;;0.68;0.35;;;;;;;17.01;64.25;101068.94;5029202;28;20045;-64
2022/09/03 04:44:16;;;;;;;1.15;0.30;;;;;;;17.08;62.88;101071.69;5025286;28;20084;-64
2022/09/03 04:46:42;;;;;;;0.60;0.45;;;;;;;17.03;63.06;101082.19;5027229;28;20026;-64
2022/09/03 04:49:08;;;;;;;0.40;0.40;;;;;;;17.01;63.54;101073.63;5029148;28;20112;-64
2022/09/03 04:51:37;;;;;;;0.30;0.30;;;;;;;17.09;63.13;101077.91;5027394;28;20553;-64
2022/09/03 04:54:03;;;;;;;0.50;0.40;;;;;;;16.94;62.93;101085.28;5028880;28;20643;-64
2022/09/03 04:56:32;;;;;;;0.47;0.47;;;;;;;16.81;63.79;101081.38;5026124;28;20557;-64
2022/09/03 04:59:00;;;;;;;0.45;0.35;;;;;;;16.85;62.95;101075.94;5029350;28;20037;-64
2022/09/03 05:01:28;;;;;;;0.70;0.40;;;;;;;17.02;62.39;101077.91;5000905;28;20045;-64
2022/09/03 05:03:57;;;;;;;0.80;0.50;;;;;;;16.99;63.01;101076.72;5015492;28;20069;-64
2022/09/03 05:06:24;;;;;;;2.67;0.25;;;;;;;17.08;62.82;101079.06;5028397;28;20060;-64
2022/09/03 05:08:51;;;;;;;0.60;0.40;;;;;;;16.95;62.34;101075.97;5010939;28;20025;-64
2022/09/03 05:11:17;;;;;;;0.30;0.28;;;;;;;17.08;62.45;101074.41;5028629;28;20041;-64
2022/09/03 05:13:47;;;;;;;0.75;0.30;;;;;;;16.93;62.99;101077.50;5028005;28;20038;-64
2022/09/03 05:16:13;;;;;;;1.05;0.50;;;;;;;17.05;62.50;101080.63;5016913;28;20026;-65
2022/09/03 05:18:38;;;;;;;0.43;0.40;;;;;;;17.08;62.00;101081.78;5029735;28;20052;-64
2022/09/03 05:21:09;;;;;;;2.05;0.52;;;;;;;17.16;61.43;101075.19;5026397;28;20033;-64
2022/09/03 05:23:37;;;;;;;0.70;0.60;;;;;;;17.08;62.67;101085.28;5028469;28;20155;-64
2022/09/03 05:26:07;;;;;;;0.75;0.50;;;;;;;17.17;61.95;101082.16;5028855;28;20036;-64
2022/09/03 05:28:35;;;;;;;0.55;0.30;;;;;;;17.33;60.80;101079.84;5022521;28;20040;-64
2022/09/03 05:31:06;;;;;;;2.70;0.45;;;;;;;17.15;62.15;101073.63;5029256;28;20489;-64
2022/09/03 05:33:37;;;;;;;0.50;0.40;;;;;;;17.29;61.43;101070.91;5026451;28;20033;-64
2022/09/03 05:36:08;;;;;;;0.50;0.35;;;;;;;17.31;61.23;101067.78;5023742;28;20041;-64
2022/09/03 05:38:34;;;;;;;0.47;0.40;;;;;;;17.25;61.42;101067.41;5009973;28;20510;-64
2022/09/03 05:41:01;;;;;;;0.50;0.50;;;;;;;17.25;62.13;101075.56;5026563;28;20044;-64
2022/09/03 05:43:28;;;;;;;0.40;0.40;;;;;;;17.24;61.74;101068.59;5025977;28;20042;-64
2022/09/03 05:45:59;;;;;;;0.73;0.50;;;;;;;17.22;62.46;101070.91;5030518;28;20375;-64
2022/09/03 05:48:27;;;;;;;0.70;0.70;;;;;;;17.11;61.61;101068.19;5032180;28;20029;-64
2022/09/03 05:51:04;;;;;;;0.80;0.40;;;;;;;17.16;61.97;101077.91;5028217;28;20037;-64
2022/09/03 05:53:33;;;;;;;0.98;0.52;;;;;;;17.17;62.39;101072.06;5022350;28;20041;-64
2022/09/03 05:56:01;;;;;;;1.67;0.57;;;;;;;17.26;61.75;101079.88;5029456;28;20048;-64
2022/09/03 05:58:34;;;;;;;1.23;0.43;;;;;;;17.43;61.22;101068.19;5029553;28;20032;-64
2022/09/03 06:01:08;;;;;;;0.60;0.40;;;;;;;17.48;60.84;101075.19;5025894;28;20039;-63
2022/09/03 06:03:34;;;;;;;0.55;0.45;;;;;;;17.38;61.17;101081.41;5025137;28;20514;-63
2022/09/03 06:05:59;;;;;;;0.35;0.20;;;;;;;17.38;61.46;101078.69;5027788;28;20032;-64
2022/09/03 06:08:25;;;;;;;0.73;0.50;;;;;;;17.39;61.03;101086.47;5005128;28;20468;-64
2022/09/03 06:10:57;;;;;;;1.02;0.47;;;;;;;17.47;60.95;101089.97;5029129;28;20042;-63
2022/09/03 06:13:22;;;;;;;2.03;0.38;;;;;;;17.43;61.15;101081.00;5016286;28;20195;-64
2022/09/03 06:15:47;;;;;;;1.00;0.47;;;;;;;17.48;61.21;101086.88;5028106;28;20072;-64
2022/09/03 06:18:13;;;;;;;0.65;0.52;;;;;;;17.56;61.00;101082.97;5028013;28;20029;-64
2022/09/03 06:20:38;;;;;;;0.75;0.47;;;;;;;17.65;61.71;101086.06;5031914;28;20545;-64
2022/09/03 06:23:04;;;;;;;0.52;0.43;;;;;;;17.75;61.00;101087.25;5030451;28;20033;-65
2022/09/03 06:25:30;;;;;;;0.80;0.45;;;;;;;17.68;61.07;101090.75;5030493;28;20485;-64
2022/09/03 06:27:56;;;;;;;0.35;0.30;;;;;;;17.82;60.44;101087.22;5014416;28;20037;-64
2022/09/03 06:30:22;;;;;;;1.05;0.40;;;;;;;17.83;60.45;101089.53;5028851;28;20040;-64
2022/09/03 06:32:49;;;;;;;0.57;0.47;;;;;;;17.88;60.23;101086.44;5026794;28;20050;-64
2022/09/03 06:35:15;;;;;;;0.15;0.15;;;;;;;17.99;59.93;101095.34;5018272;28;20095;-64
2022/09/03 06:37:42;;;;;;;0.90;0.52;;;;;;;18.24;59.98;101095.25;5027585;28;20075;-64
2022/09/03 06:40:11;;;;;;;2.05;0.68;;;;;;;18.48;58.97;101093.63;5030535;28;20052;-64
2022/09/03 06:42:38;;;;;;;1.10;0.50;;;;;;;18.77;57.85;101089.56;5026704;28;20442;-64
2022/09/03 06:45:05;;;;;;;0.65;0.38;;;;;;;19.13;57.23;101090.88;5024954;28;20042;-63
2022/09/03 06:47:32;;;;;;;0.90;0.80;;;;;;;19.41;55.75;101090.69;5029199;28;20117;-64
2022/09/03 06:49:59;;;;;;;0.60;0.30;;;;;;;19.70;55.01;101085.75;5024307;28;20033;-64
2022/09/03 06:52:25;;;;;;;0.95;0.40;;;;;;;19.64;54.01;101093.59;5024153;28;20068;-64
2022/09/03 06:54:51;;;;;;;0.77;0.57;;;;;;;19.85;54.71;101097.28;5029365;28;20046;-63
2022/09/03 06:57:16;;;;;;;0.43;0.35;;;;;;;20.17;54.33;101105.94;5025001;28;20040;-63
2022/09/03 06:59:42;;;;;;;1.10;0.40;;;;;;;20.35;53.02;101098.28;5030508;28;20072;-64
2022/09/03 07:02:09;;;;;;;0.30;0.30;;;;;;;20.66;52.42;101103.38;5024707;28;20033;-64
2022/09/03 07:04:34;;;;;;;0.57;0.40;;;;;;;20.27;52.47;101107.78;5030293;28;20837;-64
2022/09/03 07:07:01;;;;;;;0.52;0.28;;;;;;;20.47;53.44;101104.03;5020659;28;20128;-64
2022/09/03 07:09:26;;;;;;;1.13;0.55;;;;;;;20.61;53.83;101103.06;5023876;28;20033;-63
2022/09/03 07:11:52;;;;;;;0.70;0.45;;;;;;;20.98;52.62;101107.63;5019754;28;20689;-64
2022/09/03 07:14:19;;;;;;;0.75;0.40;;;;;;;21.28;51.69;101104.81;5024091;28;20033;-64
2022/09/03 07:16:45;;;;;;;3.92;0.60;;;;;;;21.20;50.76;101101.41;5023446;28;20509;-64
2022/09/03 07:19:12;;;;;;;0.85;0.40;;;;;;;21.40;50.32;101113.22;5029846;28;20083;-64
2022/09/03 07:21:40;;;;;;;0.68;0.40;;;;;;;21.50;50.18;101109.50;5029683;28;20121;-64
2022/09/03 07:24:06;;;;;;;0.90;0.60;;;;;;;21.69;50.25;101112.72;5022984;28;20123;-64
2022/09/03 07:26:37;;;;;;;0.20;0.20;;;;;;;21.72;49.42;101106.41;5027895;28;20096;-64
2022/09/03 07:29:04;;;;;;;0.30;0.22;;;;;;;21.96;49.55;101111.47;5028700;28;20029;-64
2022/09/03 07:31:39;;;;;;;0.40;0.40;;;;;;;22.17;49.34;101105.56;5009848;28;20038;-64
2022/09/03 07:34:07;;;;;;;0.57;0.50;;;;;;;22.28;48.99;101117.09;5027305;28;20037;-64
2022/09/03 07:36:45;;;;;;;0.93;0.50;;;;;;;22.14;47.99;101105.66;5028987;28;20059;-64
2022/09/03 07:39:13;;;;;;;0.45;0.40;;;;;;;22.37;48.68;101113.81;5026669;28;20104;-64
2022/09/03 07:41:42;;;;;;;0.32;0.30;;;;;;;22.61;48.83;101107.03;5025767;28;20087;-64
2022/09/03 07:44:08;;;;;;;0.73;0.50;;;;;;;22.70;47.91;101109.19;5027528;28;20022;-63
2022/09/03 07:46:36;;;;;;;0.40;0.30;;;;;;;22.69;48.66;101111.16;5026890;28;20092;-63
2022/09/03 07:49:04;;;;;;;0.73;0.50;;;;;;;22.87;47.92;101105.28;5023404;28;20034;-64
2022/09/03 07:51:32;;;;;;;0.63;0.40;;;;;;;23.00;48.10;101101.44;5027871;28;20541;-64
2022/09/03 07:54:01;;;;;;;1.85;0.50;;;;;;;23.19;47.61;101106.06;5027917;28;20478;-63
2022/09/03 07:56:29;;;;;;;0.70;0.30;;;;;;;23.36;47.25;101117.88;5027156;28;20036;-64
2022/09/03 07:58:55;;;;;;;0.75;0.40;;;;;;;23.44;47.06;101112.97;5027666;28;20057;-64
2022/09/03 08:01:23;;;;;;;0.85;0.40;;;;;;;23.63;46.46;101109.34;5023919;28;20583;-64
2022/09/03 08:03:51;;;;;;;0.50;0.30;;;;;;;23.67;46.38;101116.31;5023879;28;20060;-64
2022/09/03 08:06:19;;;;;;;0.63;0.40;;;;;;;23.90;46.04;101113.31;5010237;28;20474;-64
2022/09/03 08:08:44;;;;;;;0.65;0.47;;;;;;;23.70;44.94;101106.38;5019294;28;20067;-64
2022/09/03 08:11:16;;;;;;;0.70;0.50;;;;;;;23.89;46.09;101109.00;5026407;28;20066;-64
2022/09/03 08:13:42;;;;;;;;;;;;;;;23.92;46.08;101105.41;5026526;28;20496;-64
2022/09/03 08:16:09;;;;;;;0.75;0.30;;;;;;;24.22;45.70;101115.19;5030666;28;19913;-64
2022/09/03 08:18:38;;;;;;;0.32;0.20;;;;;;;24.35;45.18;101104.22;5027615;28;20037;-64
2022/09/03 08:21:14;;;;;;;0.75;0.40;;;;;;;24.39;44.11;101105.66;5025280;28;20044;-63
2022/09/03 08:23:42;;;;;;;0.77;0.40;;;;;;;24.59;44.09;101103.50;5026169;28;20160;-64
2022/09/03 08:26:09;;;;;;;0.75;0.40;;;;;;;24.73;43.34;101114.13;5026894;28;20556;-64
2022/09/03 08:28:35;;;;;;;0.82;0.82;;;;;;;24.90;43.26;101112.81;5010459;28;20037;-63
2022/09/03 08:31:14;;;;;;;2.50;0.60;;;;;;;24.90;43.36;101109.25;5026383;28;20029;-64
2022/09/03 08:33:46;;;;;;;1.08;0.50;;;;;;;24.95;43.21;101112.22;5023051;28;20921;-64
2022/09/03 08:36:12;;;;;;;;;;;;;;;24.92;43.74;101102.09;5024529;28;20402;-64
2022/09/03 08:38:39;;;;;;;0.20;0.20;;;;;;;25.21;43.50;101101.97;5028269;28;19935;-63
2022/09/03 08:41:28;;;;;;;0.32;0.32;;;;;;;25.50;42.20;101113.63;5003619;28;20494;-64
2022/09/03 08:44:15;;;;;;;2.38;1.58;;;;;;;25.64;42.81;101110.38;5002520;28;20060;-64
2022/09/03 08:46:52;;;;;;;0.45;0.32;;;;;;;25.61;42.03;101105.00;5028942;28;20057;-63
2022/09/03 08:49:34;;;;;;;0.43;0.40;;;;;;;25.90;42.35;101105.53;5027867;28;20033;-65
2022/09/03 08:52:05;;;;;;;2.25;0.30;;;;;;;26.05;41.20;101105.78;5028859;28;20075;-64
2022/09/03 08:54:31;;;;;;;0.63;0.50;;;;;;;26.21;41.26;101111.91;5027925;28;20068;-64
2022/09/03 08:57:01;;;;;;;0.90;0.50;;;;;;;26.31;41.04;101108.00;5022107;28;20034;-64
2022/09/03 08:59:29;;;;;;;0.60;0.30;;;;;;;26.35;40.45;101111.41;5024515;28;20033;-64
2022/09/03 09:02:16;;;;;;;0.40;0.40;;;;;;;26.39;40.07;101108.50;5027570;28;20037;-64
2022/09/03 09:04:56;;;;;;;0.40;0.40;;;;;;;26.24;41.24;101102.75;5024499;28;20118;-63
2022/09/03 09:08:15;;;;;;;0.30;0.30;;;;;;;26.56;41.13;101110.59;5040737;22;20034;-66
2022/09/03 09:10:45;;;;;;;0.70;0.47;;;;;;;26.30;40.09;101103.69;4958191;28;20609;-66
2022/09/03 09:13:15;;;;;;;0.40;0.35;;;;;;;26.57;40.20;101108.59;4957721;28;20134;-65
2022/09/03 09:15:40;;;;;;;0.57;0.35;;;;;;;26.79;39.42;101110.09;4969018;28;20050;-66
2022/09/03 09:18:41;;;;;;;0.85;0.50;;;;;;;26.63;39.96;101096.50;4961812;28;20027;-66
2022/09/03 09:21:07;;;;;;;0.50;0.30;;;;;;;26.98;39.84;101110.97;4909856;29;20040;-66
2022/09/03 09:23:48;;;;;;;0.55;0.40;;;;;;;27.13;39.26;101100.84;4940780;28;20040;-66
2022/09/03 09:26:18;;;;;;;;;;;;;;;27.48;38.85;101101.41;4947265;28;20518;-66
2022/09/03 09:28:56;;;;;;;0.52;0.30;;;;;;;27.61;38.09;101099.25;4952027;28;19956;-66
2022/09/03 09:31:21;;;;;;;0.50;0.38;;;;;;;27.84;38.77;101087.56;4944342;28;20040;-66
2022/09/03 09:33:47;;;;;;;0.32;0.30;;;;;;;27.98;37.56;101098.06;4946242;28;20101;-66
2022/09/03 09:36:18;;;;;;;0.55;0.30;;;;;;;27.69;37.16;101092.19;4953768;28;20046;-66
2022/09/03 09:38:47;;;;;;;;;;;;;;;27.74;36.86;101093.59;4924741;29;20479;-66
2022/09/03 09:41:18;;;;;;;0.35;0.30;;;;;;;27.70;36.69;101093.72;4984712;28;19921;-66
2022/09/03 09:43:46;;;;;;;0.30;0.30;;;;;;;28.02;36.61;101098.66;5048222;28;20119;-66
2022/09/03 09:46:13;;;;;;;0.30;0.20;;;;;;;28.23;36.44;101089.41;5051569;28;20041;-66
2022/09/03 09:49:25;;;;;;;0.40;0.20;;;;;;;28.30;35.32;101080.00;5051273;28;20036;-66
2022/09/03 09:52:06;;;;;;;0.22;0.20;;;;;;;28.29;36.04;101084.75;5015849;28;20056;-65
2022/09/03 09:54:32;;;;;;;0.35;0.30;;;;;;;28.31;35.83;101073.97;5030156;28;20086;-66
2022/09/03 09:57:03;;;;;;;0.25;0.25;;;;;;;28.50;35.11;101083.00;5051617;28;20428;-65
2022/09/03 09:59:30;;;;;;;0.10;0.10;;;;;;;28.40;35.14;101084.25;5049989;28;20120;-65
2022/09/03 10:02:09;;;;;;;0.30;0.22;;;;;;;28.29;35.29;101076.44;5047031;28;20080;-66
2022/09/03 10:04:35;;;;;;;2.05;0.50;;;;;;;28.28;35.50;101069.34;5048053;28;20059;-65
2022/09/03 10:07:19;;;;;;;0.10;0.10;;;;;;;28.33;34.59;101085.38;5051797;28;20029;-66
2022/09/03 10:09:56;;;;;;;0.20;0.20;;;;;;;28.26;34.46;101074.59;5049988;28;20035;-66
2022/09/03 10:12:34;;;;;;;0.50;0.35;;;;;;;28.42;34.57;101070.69;5050461;28;20357;-65
2022/09/03 10:15:32;;;;;;;0.40;0.20;;;;;;;28.59;33.93;101080.22;5025910;28;20033;-66
2022/09/03 10:18:15;;;;;;;0.52;0.40;;;;;;;28.78;33.98;101065.06;5043034;28;20037;-65
2022/09/03 10:20:51;;;;;;;1.02;0.30;;;;;;;28.91;33.82;101071.13;5049378;28;20056;-67
2022/09/03 10:23:24;;;;;;;0.95;0.70;;;;;;;28.43;34.86;101061.94;5043939;28;20385;-66
2022/09/03 10:25:56;;;;;;;1.02;0.47;;;;;;;28.80;34.66;101065.34;5046463;28;20043;-65
2022/09/03 10:28:27;;;;;;;1.35;0.85;;;;;;;28.94;34.33;101072.97;5037973;28;20033;-67
2022/09/03 10:31:35;;;;;;;0.30;0.30;;;;;;;29.26;34.24;101066.63;5041713;28;20120;-67
2022/09/03 10:34:03;;;;;;;0.63;0.20;;;;;;;29.19;33.56;101057.91;5018618;28;20063;-67
2022/09/03 10:36:47;;;;;;;0.55;0.30;;;;;;;28.86;33.88;101057.16;5035014;28;20159;-66
2022/09/03 10:39:20;;;;;;;0.52;0.35;;;;;;;29.03;33.19;101055.50;5045169;28;20033;-66
2022/09/03 10:42:34;;;;;;;2.13;0.32;;;;;;;28.91;33.24;101050.94;5050051;28;20044;-66
2022/09/03 10:45:34;;;;;;;0.40;0.40;;;;;;;27.88;34.34;101051.41;5044033;28;20382;-66
2022/09/03 10:48:14;;;;;;;0.30;0.30;;;;;;;27.79;34.97;101043.09;5043475;28;20485;-66
2022/09/03 10:51:02;;;;;;;1.10;0.80;;;;;;;28.10;34.71;101054.78;5030549;28;20045;-66
2022/09/03 10:53:50;;;;;;;0.40;0.40;;;;;;;28.74;33.99;101060.91;5040559;28;20417;-67
2022/09/03 10:56:31;;;;;;;2.35;0.45;;;;;;;28.75;33.13;101045.78;5042396;28;20025;-67
2022/09/03 10:59:18;;;;;;;1.73;1.33;;;;;;;28.60;32.56;101042.16;5004859;28;20116;-67
2022/09/03 11:01:58;;;;;;;1.73;1.10;;;;;;;28.63;33.03;101046.78;5043476;28;20512;-66
2022/09/03 11:04:49;;;;;;;1.20;0.93;;;;;;;28.74;32.76;101045.03;5038984;28;20472;-66
2022/09/03 11:07:20;;;;;;;1.15;0.70;;;;;;;28.60;33.14;101039.38;5025345;28;20056;-66
2022/09/03 11:09:53;;;;;;;0.30;0.30;;;;;;;28.96;32.62;101036.44;5026259;28;20704;-68
2022/09/03 11:12:26;;;;;;;0.98;0.68;;;;;;;29.01;32.33;101033.00;5043526;28;20032;-66
2022/09/03 11:15:04;;;;;;;0.60;0.60;;;;;;;28.87;32.00;101034.47;5046398;28;20503;-66
2022/09/03 11:17:33;;;;;;;2.15;0.45;;;;;;;28.45;32.24;101031.72;5036244;28;20029;-66
2022/09/03 11:20:08;;;;;;;0.65;0.30;;;;;;;28.58;33.08;101022.44;5009749;28;20036;-66
2022/09/03 11:22:34;;;;;;;0.60;0.30;;;;;;;28.51;32.82;101031.88;5050162;28;20485;-66
2022/09/03 11:25:01;;;;;;;0.30;0.30;;;;;;;28.27;31.65;101028.25;5044730;28;20111;-67
2022/09/03 11:27:53;;;;;;;0.82;0.40;;;;;;;27.80;31.23;101026.03;5046100;28;20055;-68
2022/09/03 11:30:48;;;;;;;0.40;0.38;;;;;;;27.47;31.79;101020.34;5016434;28;20025;-67
2022/09/03 11:33:20;;;;;;;0.80;0.30;;;;;;;27.41;32.47;101015.91;5046989;28;20036;-65
2022/09/03 11:35:53;;;;;;;0.10;0.10;;;;;;;27.86;32.85;101018.63;5036516;28;20090;-66
2022/09/03 11:38:23;;;;;;;2.58;0.32;;;;;;;28.18;33.56;101022.75;5045498;28;20041;-66
2022/09/03 11:40:57;;;;;;;0.35;0.30;;;;;;;28.68;32.88;101010.09;5046484;28;20087;-66
2022/09/03 11:43:23;;;;;;;0.40;0.28;;;;;;;28.71;31.08;101018.22;5037414;28;20044;-66
2022/09/03 11:45:49;;;;;;;0.20;0.20;;;;;;;28.66;31.02;101015.31;5042091;28;20029;-66
2022/09/03 11:48:33;;;;;;;0.47;0.35;;;;;;;28.23;30.82;101014.56;5048317;28;20079;-66
2022/09/03 11:50:59;;;;;;;0.30;0.30;;;;;;;28.21;31.81;101017.03;5044712;28;20427;-66
2022/09/03 11:53:32;;;;;;;0.55;0.35;;;;;;;28.24;32.04;100993.16;5044951;28;20033;-66